To NAV CANADA Home Page Login to a new session Search on AWWS site Feedback and Comments Disclaimer Vers la page française équivalente Tips FAQ What's new on the site To the Forecasts and Observations / NOTAM section To "File a Flight Plan" website Publications and other links Update of the User's profile FIC Telephone Numbers My Weather Data Folder Route Weather Data Regional Weather Data Local Weather Data To the Forecasts and Observations / NOTAM section
Request Generated 05/29/2016 at 17:07:40 UTC . Weather information available at that time is displayed.

METAR/TAF

LLOYDMINSTER/AB    (show WxCam)

METAR CYLL 291700Z 05004KT 320V080 15SM BKN017 14/09 A2987 RMK CF5
SLP131 DENSITY ALT 2600FT=
SPECI CYLL 291648Z 01005KT 310V050 15SM BKN017 14/10 A2988 RMK CF6
SLP132 DENSITY ALT 2500FT=
SPECI CYLL 291614Z 03005KT 320V040 15SM BKN010 12/10 A2988 RMK SC7
SLP132 DENSITY ALT 2400FT=
METAR CYLL 291600Z 35005KT 310V020 12SM BKN007 12/10 A2988 RMK SF7
SLP133 DENSITY ALT 2400FT=
SPECI CYLL 291537Z 02004KT 310V050 10SM BKN005 11/10 A2988 RMK SF7 BR
SLP136 DENSITY ALT 2200FT=
SPECI CYLL 291512Z 32005KT 7SM BKN004 09/09 A2989 RMK SF7 BR SLP139=
METAR CYLL 291500Z 32006KT 4SM BR OVC002 09/08 A2988 RMK ST8 SLP138=

TAF AMD CYLL 291524Z 2915/2924 VRB03KT 4SM BR BKN004
BECMG 2915/2916 P6SM NSW SCT008
FM291600 14006KT P6SM SCT008 TEMPO 2916/2917 BKN006
FM291700 13008KT P6SM SCT040 TEMPO 2921/2924 P6SM -SHRA BKN040
RMK FCST BASED ON AUTO OBS. NXT FCST BY 291800Z=
Your time UTC time
Weather data provided by Environment Canada and NAV CANADA